sensor_id;sensor_type;location;lat;lon;timestamp;P1;durP1;ratioP1;P2;durP2;ratioP2
33501;SDS011;22396;51.070;4.974;2023-05-23T00:00:15;35.20;;;15.75;;
33501;SDS011;22396;51.070;4.974;2023-05-23T00:03:03;32.55;;;15.88;;
33501;SDS011;22396;51.070;4.974;2023-05-23T00:08:27;36.97;;;15.93;;
33501;SDS011;22396;51.070;4.974;2023-05-23T00:10:52;29.85;;;14.82;;
33501;SDS011;22396;51.070;4.974;2023-05-23T00:13:25;33.00;;;15.05;;
33501;SDS011;22396;51.070;4.974;2023-05-23T00:15:53;32.17;;;15.45;;
33501;SDS011;22396;51.070;4.974;2023-05-23T00:18:18;32.25;;;15.88;;
33501;SDS011;22396;51.070;4.974;2023-05-23T00:20:44;36.38;;;16.25;;
33501;SDS011;22396;51.070;4.974;2023-05-23T00:23:09;45.95;;;16.90;;
33501;SDS011;22396;51.070;4.974;2023-05-23T00:25:40;41.63;;;17.75;;
33501;SDS011;22396;51.070;4.974;2023-05-23T00:28:12;39.75;;;17.30;;
33501;SDS011;22396;51.070;4.974;2023-05-23T00:30:38;39.97;;;16.75;;
33501;SDS011;22396;51.070;4.974;2023-05-23T00:33:05;34.70;;;16.73;;
33501;SDS011;22396;51.070;4.974;2023-05-23T00:35:31;35.00;;;16.48;;
33501;SDS011;22396;51.070;4.974;2023-05-23T00:37:56;41.25;;;17.27;;
33501;SDS011;22396;51.070;4.974;2023-05-23T00:40:31;36.97;;;16.33;;
33501;SDS011;22396;51.070;4.974;2023-05-23T00:42:59;36.10;;;16.80;;
33501;SDS011;22396;51.070;4.974;2023-05-23T00:45:25;27.20;;;13.10;;
33501;SDS011;22396;51.070;4.974;2023-05-23T00:48:02;33.88;;;15.70;;
33501;SDS011;22396;51.070;4.974;2023-05-23T00:50:28;38.50;;;15.27;;
33501;SDS011;22396;51.070;4.974;2023-05-23T00:52:54;30.25;;;12.18;;
33501;SDS011;22396;51.070;4.974;2023-05-23T00:55:19;35.20;;;15.70;;
33501;SDS011;22396;51.070;4.974;2023-05-23T00:57:48;32.80;;;16.00;;
33501;SDS011;22396;51.070;4.974;2023-05-23T01:00:16;26.33;;;12.75;;
33501;SDS011;22396;51.070;4.974;2023-05-23T01:02:52;40.97;;;15.52;;
33501;SDS011;22396;51.070;4.974;2023-05-23T01:05:18;31.38;;;13.75;;
33501;SDS011;22396;51.070;4.974;2023-05-23T01:07:44;31.92;;;14.50;;
33501;SDS011;22396;51.070;4.974;2023-05-23T01:10:11;32.58;;;14.40;;
33501;SDS011;22396;51.070;4.974;2023-05-23T01:12:49;33.85;;;15.18;;
33501;SDS011;22396;51.070;4.974;2023-05-23T01:15:28;29.48;;;13.88;;
33501;SDS011;22396;51.070;4.974;2023-05-23T01:17:58;31.23;;;14.10;;
33501;SDS011;22396;51.070;4.974;2023-05-23T01:21:14;31.80;;;14.65;;
33501;SDS011;22396;51.070;4.974;2023-05-23T01:28:54;30.55;;;13.65;;
33501;SDS011;22396;51.070;4.974;2023-05-23T01:31:20;29.00;;;14.15;;
33501;SDS011;22396;51.070;4.974;2023-05-23T01:33:51;27.85;;;14.23;;
33501;SDS011;22396;51.070;4.974;2023-05-23T01:36:20;30.50;;;14.00;;
33501;SDS011;22396;51.070;4.974;2023-05-23T01:38:45;25.85;;;12.88;;
33501;SDS011;22396;51.070;4.974;2023-05-23T01:41:18;32.78;;;13.88;;
33501;SDS011;22396;51.070;4.974;2023-05-23T01:43:44;31.77;;;14.88;;
33501;SDS011;22396;51.070;4.974;2023-05-23T01:46:09;35.25;;;13.77;;
33501;SDS011;22396;51.070;4.974;2023-05-23T01:48:55;34.70;;;16.02;;
33501;SDS011;22396;51.070;4.974;2023-05-23T01:51:23;33.47;;;13.98;;
33501;SDS011;22396;51.070;4.974;2023-05-23T01:53:51;32.25;;;12.90;;
33501;SDS011;22396;51.070;4.974;2023-05-23T01:56:22;33.40;;;13.77;;
33501;SDS011;22396;51.070;4.974;2023-05-23T01:59:01;29.50;;;12.32;;
33501;SDS011;22396;51.070;4.974;2023-05-23T02:01:35;27.17;;;12.93;;
33501;SDS011;22396;51.070;4.974;2023-05-23T02:04:04;26.23;;;11.45;;
33501;SDS011;22396;51.070;4.974;2023-05-23T02:06:37;21.90;;;9.65;;
33501;SDS011;22396;51.070;4.974;2023-05-23T02:09:03;21.95;;;10.50;;
33501;SDS011;22396;51.070;4.974;2023-05-23T02:11:53;21.33;;;8.85;;
33501;SDS011;22396;51.070;4.974;2023-05-23T02:14:20;20.50;;;10.18;;
33501;SDS011;22396;51.070;4.974;2023-05-23T02:16:57;18.77;;;9.55;;
33501;SDS011;22396;51.070;4.974;2023-05-23T02:19:26;22.95;;;9.52;;
33501;SDS011;22396;51.070;4.974;2023-05-23T02:21:51;14.63;;;8.23;;
33501;SDS011;22396;51.070;4.974;2023-05-23T02:24:19;21.48;;;9.80;;
33501;SDS011;22396;51.070;4.974;2023-05-23T02:26:46;17.55;;;8.93;;
33501;SDS011;22396;51.070;4.974;2023-05-23T02:29:17;21.80;;;11.15;;
33501;SDS011;22396;51.070;4.974;2023-05-23T02:31:42;24.85;;;9.70;;
33501;SDS011;22396;51.070;4.974;2023-05-23T02:34:08;20.70;;;9.10;;
33501;SDS011;22396;51.070;4.974;2023-05-23T02:36:36;15.07;;;8.35;;
33501;SDS011;22396;51.070;4.974;2023-05-23T02:39:03;20.52;;;8.95;;
33501;SDS011;22396;51.070;4.974;2023-05-23T02:41:34;16.90;;;7.93;;
33501;SDS011;22396;51.070;4.974;2023-05-23T02:44:02;18.52;;;7.13;;
33501;SDS011;22396;51.070;4.974;2023-05-23T02:46:29;19.02;;;7.35;;
33501;SDS011;22396;51.070;4.974;2023-05-23T02:48:58;12.57;;;6.90;;
33501;SDS011;22396;51.070;4.974;2023-05-23T02:51:26;16.45;;;8.15;;
33501;SDS011;22396;51.070;4.974;2023-05-23T02:53:51;19.15;;;8.55;;
33501;SDS011;22396;51.070;4.974;2023-05-23T02:56:34;19.38;;;7.70;;
33501;SDS011;22396;51.070;4.974;2023-05-23T02:58:59;18.38;;;7.40;;
33501;SDS011;22396;51.070;4.974;2023-05-23T03:01:59;14.98;;;7.55;;
33501;SDS011;22396;51.070;4.974;2023-05-23T03:04:44;19.27;;;7.68;;
33501;SDS011;22396;51.070;4.974;2023-05-23T03:07:13;15.25;;;6.97;;
33501;SDS011;22396;51.070;4.974;2023-05-23T03:10:02;18.10;;;7.35;;
33501;SDS011;22396;51.070;4.974;2023-05-23T03:12:33;21.00;;;9.60;;
33501;SDS011;22396;51.070;4.974;2023-05-23T03:15:00;22.25;;;7.93;;
33501;SDS011;22396;51.070;4.974;2023-05-23T03:17:25;23.60;;;8.75;;
33501;SDS011;22396;51.070;4.974;2023-05-23T03:20:01;17.45;;;8.15;;
33501;SDS011;22396;51.070;4.974;2023-05-23T03:25:29;20.65;;;7.07;;
33501;SDS011;22396;51.070;4.974;2023-05-23T03:28:00;15.60;;;7.22;;
33501;SDS011;22396;51.070;4.974;2023-05-23T03:30:30;19.73;;;8.30;;
33501;SDS011;22396;51.070;4.974;2023-05-23T03:33:00;19.33;;;7.85;;
33501;SDS011;22396;51.070;4.974;2023-05-23T03:35:28;26.33;;;9.23;;
33501;SDS011;22396;51.070;4.974;2023-05-23T03:38:12;21.40;;;8.98;;
33501;SDS011;22396;51.070;4.974;2023-05-23T03:40:44;19.90;;;9.80;;
33501;SDS011;22396;51.070;4.974;2023-05-23T03:43:17;12.63;;;5.38;;
33501;SDS011;22396;51.070;4.974;2023-05-23T03:45:45;19.92;;;8.30;;
33501;SDS011;22396;51.070;4.974;2023-05-23T03:48:13;18.25;;;8.18;;
33501;SDS011;22396;51.070;4.974;2023-05-23T03:50:50;17.50;;;7.55;;
33501;SDS011;22396;51.070;4.974;2023-05-23T03:53:15;20.50;;;8.85;;
33501;SDS011;22396;51.070;4.974;2023-05-23T03:55:45;24.60;;;8.65;;
33501;SDS011;22396;51.070;4.974;2023-05-23T04:01:21;20.40;;;7.57;;
33501;SDS011;22396;51.070;4.974;2023-05-23T04:03:48;15.35;;;7.40;;
33501;SDS011;22396;51.070;4.974;2023-05-23T04:06:19;17.50;;;7.75;;
33501;SDS011;22396;51.070;4.974;2023-05-23T04:09:04;24.85;;;8.07;;
33501;SDS011;22396;51.070;4.974;2023-05-23T04:11:41;16.83;;;8.23;;
33501;SDS011;22396;51.070;4.974;2023-05-23T04:14:20;16.00;;;7.28;;
33501;SDS011;22396;51.070;4.974;2023-05-23T04:16:57;13.35;;;7.03;;
33501;SDS011;22396;51.070;4.974;2023-05-23T04:19:26;14.60;;;6.63;;
33501;SDS011;22396;51.070;4.974;2023-05-23T04:21:54;19.20;;;7.15;;
33501;SDS011;22396;51.070;4.974;2023-05-23T04:24:22;15.30;;;6.20;;
33501;SDS011;22396;51.070;4.974;2023-05-23T04:32:43;12.57;;;6.03;;
33501;SDS011;22396;51.070;4.974;2023-05-23T04:35:08;13.95;;;6.45;;
33501;SDS011;22396;51.070;4.974;2023-05-23T04:37:38;14.65;;;6.90;;
33501;SDS011;22396;51.070;4.974;2023-05-23T04:40:32;16.00;;;6.43;;
33501;SDS011;22396;51.070;4.974;2023-05-23T04:43:16;14.23;;;6.32;;
33501;SDS011;22396;51.070;4.974;2023-05-23T04:45:50;18.17;;;6.38;;
33501;SDS011;22396;51.070;4.974;2023-05-23T04:48:18;12.80;;;5.95;;
33501;SDS011;22396;51.070;4.974;2023-05-23T04:50:52;13.77;;;6.45;;
33501;SDS011;22396;51.070;4.974;2023-05-23T04:59:19;17.77;;;6.97;;
33501;SDS011;22396;51.070;4.974;2023-05-23T05:05:04;17.70;;;6.82;;
33501;SDS011;22396;51.070;4.974;2023-05-23T05:10:33;17.20;;;7.60;;
33501;SDS011;22396;51.070;4.974;2023-05-23T05:13:19;15.75;;;6.40;;
33501;SDS011;22396;51.070;4.974;2023-05-23T05:18:54;14.73;;;6.47;;
33501;SDS011;22396;51.070;4.974;2023-05-23T05:21:34;17.00;;;6.53;;
33501;SDS011;22396;51.070;4.974;2023-05-23T05:27:33;20.65;;;7.22;;
33501;SDS011;22396;51.070;4.974;2023-05-23T05:30:15;19.25;;;7.30;;
33501;SDS011;22396;51.070;4.974;2023-05-23T05:33:03;20.08;;;8.80;;
33501;SDS011;22396;51.070;4.974;2023-05-23T05:35:56;15.68;;;7.20;;
33501;SDS011;22396;51.070;4.974;2023-05-23T05:44:34;19.30;;;7.10;;
33501;SDS011;22396;51.070;4.974;2023-05-23T05:47:12;16.50;;;7.53;;
33501;SDS011;22396;51.070;4.974;2023-05-23T05:49:51;17.50;;;7.20;;
33501;SDS011;22396;51.070;4.974;2023-05-23T05:52:19;23.52;;;7.00;;
33501;SDS011;22396;51.070;4.974;2023-05-23T05:54:52;19.83;;;7.80;;
33501;SDS011;22396;51.070;4.974;2023-05-23T05:57:21;17.15;;;6.28;;
33501;SDS011;22396;51.070;4.974;2023-05-23T06:00:12;20.27;;;6.88;;
33501;SDS011;22396;51.070;4.974;2023-05-23T06:02:46;16.65;;;6.40;;
33501;SDS011;22396;51.070;4.974;2023-05-23T06:05:14;22.58;;;6.68;;
33501;SDS011;22396;51.070;4.974;2023-05-23T06:07:42;15.93;;;6.95;;
33501;SDS011;22396;51.070;4.974;2023-05-23T06:10:08;19.02;;;6.45;;
33501;SDS011;22396;51.070;4.974;2023-05-23T06:12:37;17.98;;;6.97;;
33501;SDS011;22396;51.070;4.974;2023-05-23T06:15:05;22.63;;;7.32;;
33501;SDS011;22396;51.070;4.974;2023-05-23T06:17:31;32.00;;;8.02;;
33501;SDS011;22396;51.070;4.974;2023-05-23T06:19:56;25.23;;;8.00;;
33501;SDS011;22396;51.070;4.974;2023-05-23T06:22:21;16.52;;;6.50;;
33501;SDS011;22396;51.070;4.974;2023-05-23T06:24:49;21.80;;;6.07;;
33501;SDS011;22396;51.070;4.974;2023-05-23T06:27:14;21.63;;;6.70;;
33501;SDS011;22396;51.070;4.974;2023-05-23T06:29:42;19.25;;;6.00;;
33501;SDS011;22396;51.070;4.974;2023-05-23T06:32:10;20.98;;;4.97;;
33501;SDS011;22396;51.070;4.974;2023-05-23T06:34:35;20.60;;;6.20;;
33501;SDS011;22396;51.070;4.974;2023-05-23T06:37:00;9.57;;;4.47;;
33501;SDS011;22396;51.070;4.974;2023-05-23T06:39:26;19.30;;;5.40;;
33501;SDS011;22396;51.070;4.974;2023-05-23T06:41:52;13.73;;;4.20;;
33501;SDS011;22396;51.070;4.974;2023-05-23T06:44:19;16.98;;;6.28;;
33501;SDS011;22396;51.070;4.974;2023-05-23T06:46:45;14.60;;;4.45;;
33501;SDS011;22396;51.070;4.974;2023-05-23T06:49:19;11.77;;;5.18;;
33501;SDS011;22396;51.070;4.974;2023-05-23T06:51:46;12.10;;;4.60;;
33501;SDS011;22396;51.070;4.974;2023-05-23T06:54:12;14.90;;;4.53;;
33501;SDS011;22396;51.070;4.974;2023-05-23T06:56:57;9.43;;;4.15;;
33501;SDS011;22396;51.070;4.974;2023-05-23T06:59:25;14.45;;;4.82;;
33501;SDS011;22396;51.070;4.974;2023-05-23T07:02:13;16.48;;;4.88;;
33501;SDS011;22396;51.070;4.974;2023-05-23T07:04:42;12.07;;;5.25;;
33501;SDS011;22396;51.070;4.974;2023-05-23T07:07:08;13.20;;;5.20;;
33501;SDS011;22396;51.070;4.974;2023-05-23T07:09:38;14.45;;;4.50;;
33501;SDS011;22396;51.070;4.974;2023-05-23T07:12:36;12.30;;;5.03;;
33501;SDS011;22396;51.070;4.974;2023-05-23T07:15:01;11.98;;;4.75;;
33501;SDS011;22396;51.070;4.974;2023-05-23T07:17:28;9.05;;;4.00;;
33501;SDS011;22396;51.070;4.974;2023-05-23T07:19:54;15.10;;;5.65;;
33501;SDS011;22396;51.070;4.974;2023-05-23T07:22:20;11.05;;;4.47;;
33501;SDS011;22396;51.070;4.974;2023-05-23T07:24:49;14.60;;;4.95;;
33501;SDS011;22396;51.070;4.974;2023-05-23T07:27:15;14.10;;;4.85;;
33501;SDS011;22396;51.070;4.974;2023-05-23T07:29:41;11.57;;;4.53;;
33501;SDS011;22396;51.070;4.974;2023-05-23T07:32:06;15.10;;;5.10;;
33501;SDS011;22396;51.070;4.974;2023-05-23T07:34:32;14.43;;;5.10;;
33501;SDS011;22396;51.070;4.974;2023-05-23T07:36:57;14.30;;;4.45;;
33501;SDS011;22396;51.070;4.974;2023-05-23T07:39:24;12.95;;;6.25;;
33501;SDS011;22396;51.070;4.974;2023-05-23T07:41:49;18.40;;;6.20;;
33501;SDS011;22396;51.070;4.974;2023-05-23T07:44:15;12.20;;;5.18;;
33501;SDS011;22396;51.070;4.974;2023-05-23T07:46:40;12.55;;;5.90;;
33501;SDS011;22396;51.070;4.974;2023-05-23T07:49:06;10.77;;;4.65;;
33501;SDS011;22396;51.070;4.974;2023-05-23T07:51:32;12.65;;;4.78;;
33501;SDS011;22396;51.070;4.974;2023-05-23T07:53:57;12.30;;;5.88;;
33501;SDS011;22396;51.070;4.974;2023-05-23T07:56:27;14.43;;;6.22;;
33501;SDS011;22396;51.070;4.974;2023-05-23T07:59:19;14.05;;;5.15;;
33501;SDS011;22396;51.070;4.974;2023-05-23T08:01:46;11.90;;;5.57;;
33501;SDS011;22396;51.070;4.974;2023-05-23T08:04:22;14.20;;;6.10;;
33501;SDS011;22396;51.070;4.974;2023-05-23T08:06:55;14.30;;;5.50;;
33501;SDS011;22396;51.070;4.974;2023-05-23T08:09:21;15.48;;;5.53;;
33501;SDS011;22396;51.070;4.974;2023-05-23T08:11:47;14.27;;;5.63;;
33501;SDS011;22396;51.070;4.974;2023-05-23T08:14:15;17.48;;;6.32;;
33501;SDS011;22396;51.070;4.974;2023-05-23T08:16:49;15.35;;;5.53;;
33501;SDS011;22396;51.070;4.974;2023-05-23T08:19:19;16.77;;;5.82;;
33501;SDS011;22396;51.070;4.974;2023-05-23T08:21:48;10.80;;;5.32;;
33501;SDS011;22396;51.070;4.974;2023-05-23T08:27:09;13.57;;;5.75;;
33501;SDS011;22396;51.070;4.974;2023-05-23T08:29:44;17.17;;;5.75;;
33501;SDS011;22396;51.070;4.974;2023-05-23T08:32:11;15.65;;;4.72;;
33501;SDS011;22396;51.070;4.974;2023-05-23T08:34:37;20.48;;;6.80;;
33501;SDS011;22396;51.070;4.974;2023-05-23T08:37:03;17.95;;;5.80;;
33501;SDS011;22396;51.070;4.974;2023-05-23T08:39:29;12.30;;;6.45;;
33501;SDS011;22396;51.070;4.974;2023-05-23T08:41:54;18.25;;;6.25;;
33501;SDS011;22396;51.070;4.974;2023-05-23T08:44:19;16.75;;;6.53;;
33501;SDS011;22396;51.070;4.974;2023-05-23T08:46:45;16.10;;;5.68;;
33501;SDS011;22396;51.070;4.974;2023-05-23T08:49:10;17.42;;;6.53;;
33501;SDS011;22396;51.070;4.974;2023-05-23T08:51:38;13.50;;;5.80;;
33501;SDS011;22396;51.070;4.974;2023-05-23T08:54:06;16.65;;;7.35;;
33501;SDS011;22396;51.070;4.974;2023-05-23T08:56:33;14.00;;;6.13;;
33501;SDS011;22396;51.070;4.974;2023-05-23T08:58:59;13.10;;;6.05;;
33501;SDS011;22396;51.070;4.974;2023-05-23T09:01:25;11.57;;;4.63;;
33501;SDS011;22396;51.070;4.974;2023-05-23T09:03:50;13.57;;;4.47;;
33501;SDS011;22396;51.070;4.974;2023-05-23T09:06:15;10.60;;;4.68;;
33501;SDS011;22396;51.070;4.974;2023-05-23T09:08:42;11.10;;;4.20;;
33501;SDS011;22396;51.070;4.974;2023-05-23T09:11:10;16.00;;;5.00;;
33501;SDS011;22396;51.070;4.974;2023-05-23T09:13:36;10.10;;;4.32;;
33501;SDS011;22396;51.070;4.974;2023-05-23T09:16:05;13.52;;;4.80;;
33501;SDS011;22396;51.070;4.974;2023-05-23T09:18:35;8.25;;;3.47;;
33501;SDS011;22396;51.070;4.974;2023-05-23T09:21:01;10.82;;;3.75;;
33501;SDS011;22396;51.070;4.974;2023-05-23T09:23:33;10.55;;;3.80;;
33501;SDS011;22396;51.070;4.974;2023-05-23T09:26:02;11.98;;;3.72;;
33501;SDS011;22396;51.070;4.974;2023-05-23T09:28:34;8.95;;;3.80;;
33501;SDS011;22396;51.070;4.974;2023-05-23T09:31:01;9.05;;;2.92;;
33501;SDS011;22396;51.070;4.974;2023-05-23T09:33:42;8.57;;;3.20;;
33501;SDS011;22396;51.070;4.974;2023-05-23T09:36:09;6.57;;;3.50;;
33501;SDS011;22396;51.070;4.974;2023-05-23T09:38:38;11.13;;;3.72;;
33501;SDS011;22396;51.070;4.974;2023-05-23T09:41:04;10.95;;;2.95;;
33501;SDS011;22396;51.070;4.974;2023-05-23T09:43:31;12.10;;;3.95;;
33501;SDS011;22396;51.070;4.974;2023-05-23T09:46:00;11.73;;;3.10;;
33501;SDS011;22396;51.070;4.974;2023-05-23T09:48:28;7.45;;;3.20;;
33501;SDS011;22396;51.070;4.974;2023-05-23T09:50:56;7.93;;;3.13;;
33501;SDS011;22396;51.070;4.974;2023-05-23T09:53:21;9.07;;;3.83;;
33501;SDS011;22396;51.070;4.974;2023-05-23T09:55:48;14.05;;;4.40;;
33501;SDS011;22396;51.070;4.974;2023-05-23T09:58:15;10.63;;;4.13;;
33501;SDS011;22396;51.070;4.974;2023-05-23T10:00:48;11.18;;;3.90;;
33501;SDS011;22396;51.070;4.974;2023-05-23T10:06:31;12.40;;;3.72;;
33501;SDS011;22396;51.070;4.974;2023-05-23T10:09:12;12.68;;;4.20;;
33501;SDS011;22396;51.070;4.974;2023-05-23T10:14:26;9.15;;;3.78;;
33501;SDS011;22396;51.070;4.974;2023-05-23T10:17:06;11.20;;;3.90;;
33501;SDS011;22396;51.070;4.974;2023-05-23T10:19:47;11.40;;;3.37;;
33501;SDS011;22396;51.070;4.974;2023-05-23T10:22:16;12.57;;;3.72;;
33501;SDS011;22396;51.070;4.974;2023-05-23T10:24:45;7.88;;;3.67;;
33501;SDS011;22396;51.070;4.974;2023-05-23T10:27:13;10.55;;;3.40;;
33501;SDS011;22396;51.070;4.974;2023-05-23T10:29:52;8.82;;;3.63;;
33501;SDS011;22396;51.070;4.974;2023-05-23T10:32:20;11.15;;;3.65;;
33501;SDS011;22396;51.070;4.974;2023-05-23T10:34:50;11.38;;;4.00;;
33501;SDS011;22396;51.070;4.974;2023-05-23T10:37:28;10.85;;;3.20;;
33501;SDS011;22396;51.070;4.974;2023-05-23T10:40:14;7.57;;;2.92;;
33501;SDS011;22396;51.070;4.974;2023-05-23T10:42:51;7.75;;;3.60;;
33501;SDS011;22396;51.070;4.974;2023-05-23T10:45:27;13.05;;;3.47;;
33501;SDS011;22396;51.070;4.974;2023-05-23T10:47:53;6.38;;;3.30;;
33501;SDS011;22396;51.070;4.974;2023-05-23T10:50:31;6.05;;;2.92;;
33501;SDS011;22396;51.070;4.974;2023-05-23T10:52:58;2.65;;;1.73;;
33501;SDS011;22396;51.070;4.974;2023-05-23T10:55:25;9.05;;;2.53;;
33501;SDS011;22396;51.070;4.974;2023-05-23T11:00:36;9.70;;;2.65;;
33501;SDS011;22396;51.070;4.974;2023-05-23T11:03:04;5.00;;;2.13;;
33501;SDS011;22396;51.070;4.974;2023-05-23T11:05:30;5.25;;;2.53;;
33501;SDS011;22396;51.070;4.974;2023-05-23T11:08:13;11.52;;;2.20;;
33501;SDS011;22396;51.070;4.974;2023-05-23T11:13:15;4.72;;;2.17;;
33501;SDS011;22396;51.070;4.974;2023-05-23T11:15:41;7.00;;;1.88;;
33501;SDS011;22396;51.070;4.974;2023-05-23T11:18:06;6.78;;;2.00;;
33501;SDS011;22396;51.070;4.974;2023-05-23T11:20:32;8.05;;;1.80;;
33501;SDS011;22396;51.070;4.974;2023-05-23T11:22:59;7.53;;;2.60;;
33501;SDS011;22396;51.070;4.974;2023-05-23T11:25:41;10.55;;;2.20;;
33501;SDS011;22396;51.070;4.974;2023-05-23T11:28:07;5.70;;;2.05;;
33501;SDS011;22396;51.070;4.974;2023-05-23T11:30:33;12.07;;;2.63;;
33501;SDS011;22396;51.070;4.974;2023-05-23T11:32:59;8.30;;;2.58;;
33501;SDS011;22396;51.070;4.974;2023-05-23T11:35:25;8.07;;;2.17;;
33501;SDS011;22396;51.070;4.974;2023-05-23T11:37:51;7.57;;;2.70;;
33501;SDS011;22396;51.070;4.974;2023-05-23T11:42:52;6.30;;;1.85;;
33501;SDS011;22396;51.070;4.974;2023-05-23T11:45:19;11.30;;;2.67;;
33501;SDS011;22396;51.070;4.974;2023-05-23T11:47:54;8.07;;;2.20;;
33501;SDS011;22396;51.070;4.974;2023-05-23T11:50:20;4.20;;;1.65;;
33501;SDS011;22396;51.070;4.974;2023-05-23T11:52:45;7.82;;;2.08;;
33501;SDS011;22396;51.070;4.974;2023-05-23T11:55:21;9.65;;;2.00;;
33501;SDS011;22396;51.070;4.974;2023-05-23T11:57:47;6.20;;;2.33;;
33501;SDS011;22396;51.070;4.974;2023-05-23T12:00:15;13.77;;;2.15;;
33501;SDS011;22396;51.070;4.974;2023-05-23T12:02:43;10.02;;;2.03;;
33501;SDS011;22396;51.070;4.974;2023-05-23T12:05:12;9.52;;;2.13;;
33501;SDS011;22396;51.070;4.974;2023-05-23T12:10:10;7.25;;;2.15;;
33501;SDS011;22396;51.070;4.974;2023-05-23T12:12:35;7.82;;;2.33;;
33501;SDS011;22396;51.070;4.974;2023-05-23T12:15:02;4.63;;;1.75;;
33501;SDS011;22396;51.070;4.974;2023-05-23T12:17:28;7.70;;;2.33;;
33501;SDS011;22396;51.070;4.974;2023-05-23T12:19:53;8.30;;;2.60;;
33501;SDS011;22396;51.070;4.974;2023-05-23T12:22:22;12.15;;;2.08;;
33501;SDS011;22396;51.070;4.974;2023-05-23T12:24:57;10.75;;;2.75;;
33501;SDS011;22396;51.070;4.974;2023-05-23T12:27:39;8.10;;;2.25;;
33501;SDS011;22396;51.070;4.974;2023-05-23T12:30:13;7.55;;;2.08;;
33501;SDS011;22396;51.070;4.974;2023-05-23T12:32:40;9.73;;;1.70;;
33501;SDS011;22396;51.070;4.974;2023-05-23T12:35:10;7.22;;;2.00;;
33501;SDS011;22396;51.070;4.974;2023-05-23T12:37:39;5.68;;;1.95;;
33501;SDS011;22396;51.070;4.974;2023-05-23T12:40:12;11.90;;;2.28;;
33501;SDS011;22396;51.070;4.974;2023-05-23T12:45:12;6.20;;;1.63;;
33501;SDS011;22396;51.070;4.974;2023-05-23T12:47:37;14.35;;;2.20;;
33501;SDS011;22396;51.070;4.974;2023-05-23T12:50:05;9.15;;;1.98;;
33501;SDS011;22396;51.070;4.974;2023-05-23T12:52:30;7.28;;;2.25;;
33501;SDS011;22396;51.070;4.974;2023-05-23T12:54:56;9.60;;;1.70;;
33501;SDS011;22396;51.070;4.974;2023-05-23T12:57:21;6.68;;;1.77;;
33501;SDS011;22396;51.070;4.974;2023-05-23T12:59:46;10.27;;;2.15;;
33501;SDS011;22396;51.070;4.974;2023-05-23T13:02:12;5.15;;;1.83;;
33501;SDS011;22396;51.070;4.974;2023-05-23T13:04:38;9.30;;;1.90;;
33501;SDS011;22396;51.070;4.974;2023-05-23T13:07:05;12.52;;;2.10;;
33501;SDS011;22396;51.070;4.974;2023-05-23T13:09:31;9.00;;;1.73;;
33501;SDS011;22396;51.070;4.974;2023-05-23T13:12:00;10.10;;;2.05;;
33501;SDS011;22396;51.070;4.974;2023-05-23T13:14:25;11.40;;;2.10;;
33501;SDS011;22396;51.070;4.974;2023-05-23T13:16:51;9.73;;;1.90;;
33501;SDS011;22396;51.070;4.974;2023-05-23T13:19:16;5.90;;;1.75;;
33501;SDS011;22396;51.070;4.974;2023-05-23T13:21:44;12.32;;;2.08;;
33501;SDS011;22396;51.070;4.974;2023-05-23T13:24:09;9.05;;;1.92;;
33501;SDS011;22396;51.070;4.974;2023-05-23T13:26:35;5.22;;;1.90;;
33501;SDS011;22396;51.070;4.974;2023-05-23T13:29:00;5.80;;;1.75;;
33501;SDS011;22396;51.070;4.974;2023-05-23T13:31:25;5.93;;;1.95;;
33501;SDS011;22396;51.070;4.974;2023-05-23T13:33:51;6.72;;;1.60;;
33501;SDS011;22396;51.070;4.974;2023-05-23T13:36:16;7.18;;;2.35;;
33501;SDS011;22396;51.070;4.974;2023-05-23T13:38:44;4.13;;;1.23;;
33501;SDS011;22396;51.070;4.974;2023-05-23T13:41:10;9.15;;;2.08;;
33501;SDS011;22396;51.070;4.974;2023-05-23T13:43:35;7.13;;;1.90;;
33501;SDS011;22396;51.070;4.974;2023-05-23T13:46:01;7.10;;;1.65;;
33501;SDS011;22396;51.070;4.974;2023-05-23T13:48:27;8.30;;;1.73;;
33501;SDS011;22396;51.070;4.974;2023-05-23T13:50:54;7.20;;;1.77;;
33501;SDS011;22396;51.070;4.974;2023-05-23T13:53:22;7.90;;;1.83;;
33501;SDS011;22396;51.070;4.974;2023-05-23T13:55:48;10.98;;;2.25;;
33501;SDS011;22396;51.070;4.974;2023-05-23T13:58:19;10.88;;;1.30;;
33501;SDS011;22396;51.070;4.974;2023-05-23T14:03:11;7.85;;;1.75;;
33501;SDS011;22396;51.070;4.974;2023-05-23T14:05:36;8.50;;;2.25;;
33501;SDS011;22396;51.070;4.974;2023-05-23T14:08:02;10.18;;;2.38;;
33501;SDS011;22396;51.070;4.974;2023-05-23T14:10:28;7.78;;;1.90;;
33501;SDS011;22396;51.070;4.974;2023-05-23T14:12:57;8.30;;;2.25;;
33501;SDS011;22396;51.070;4.974;2023-05-23T14:15:45;6.35;;;1.92;;
33501;SDS011;22396;51.070;4.974;2023-05-23T14:18:10;9.65;;;2.03;;
33501;SDS011;22396;51.070;4.974;2023-05-23T14:20:37;7.10;;;1.80;;
33501;SDS011;22396;51.070;4.974;2023-05-23T14:23:02;14.95;;;2.08;;
33501;SDS011;22396;51.070;4.974;2023-05-23T14:25:29;13.95;;;1.92;;
33501;SDS011;22396;51.070;4.974;2023-05-23T14:27:55;18.48;;;1.85;;
33501;SDS011;22396;51.070;4.974;2023-05-23T14:30:30;5.95;;;1.73;;
33501;SDS011;22396;51.070;4.974;2023-05-23T14:32:57;9.15;;;1.90;;
33501;SDS011;22396;51.070;4.974;2023-05-23T14:35:22;7.95;;;1.50;;
33501;SDS011;22396;51.070;4.974;2023-05-23T14:37:49;12.20;;;2.30;;
33501;SDS011;22396;51.070;4.974;2023-05-23T14:40:16;8.93;;;2.08;;
33501;SDS011;22396;51.070;4.974;2023-05-23T14:42:43;9.30;;;2.20;;
33501;SDS011;22396;51.070;4.974;2023-05-23T14:45:08;11.25;;;2.65;;
33501;SDS011;22396;51.070;4.974;2023-05-23T14:47:34;11.25;;;1.73;;
33501;SDS011;22396;51.070;4.974;2023-05-23T14:50:01;8.82;;;2.30;;
33501;SDS011;22396;51.070;4.974;2023-05-23T14:52:27;8.82;;;2.20;;
33501;SDS011;22396;51.070;4.974;2023-05-23T14:54:54;9.80;;;2.22;;
33501;SDS011;22396;51.070;4.974;2023-05-23T14:57:20;10.15;;;2.03;;
33501;SDS011;22396;51.070;4.974;2023-05-23T15:02:34;9.65;;;2.20;;
33501;SDS011;22396;51.070;4.974;2023-05-23T15:04:59;7.38;;;1.98;;
33501;SDS011;22396;51.070;4.974;2023-05-23T15:07:26;6.80;;;1.95;;
33501;SDS011;22396;51.070;4.974;2023-05-23T15:09:52;15.80;;;2.50;;
33501;SDS011;22396;51.070;4.974;2023-05-23T15:12:18;7.90;;;1.88;;
33501;SDS011;22396;51.070;4.974;2023-05-23T15:14:45;8.15;;;2.00;;
33501;SDS011;22396;51.070;4.974;2023-05-23T15:17:12;15.10;;;2.78;;
33501;SDS011;22396;51.070;4.974;2023-05-23T15:19:43;6.55;;;2.25;;
33501;SDS011;22396;51.070;4.974;2023-05-23T15:22:11;14.68;;;2.75;;
33501;SDS011;22396;51.070;4.974;2023-05-23T15:24:37;8.30;;;2.38;;
33501;SDS011;22396;51.070;4.974;2023-05-23T15:27:03;11.73;;;2.55;;
33501;SDS011;22396;51.070;4.974;2023-05-23T15:29:29;7.68;;;2.10;;
33501;SDS011;22396;51.070;4.974;2023-05-23T15:31:59;10.15;;;2.30;;
33501;SDS011;22396;51.070;4.974;2023-05-23T15:34:25;9.43;;;2.00;;
33501;SDS011;22396;51.070;4.974;2023-05-23T15:36:52;12.40;;;2.35;;
33501;SDS011;22396;51.070;4.974;2023-05-23T15:39:20;8.50;;;2.47;;
33501;SDS011;22396;51.070;4.974;2023-05-23T15:41:46;7.97;;;2.25;;
33501;SDS011;22396;51.070;4.974;2023-05-23T15:44:11;11.43;;;2.22;;
33501;SDS011;22396;51.070;4.974;2023-05-23T15:46:38;4.68;;;1.63;;
33501;SDS011;22396;51.070;4.974;2023-05-23T15:49:05;11.93;;;2.08;;
33501;SDS011;22396;51.070;4.974;2023-05-23T15:51:30;7.82;;;1.90;;
33501;SDS011;22396;51.070;4.974;2023-05-23T15:53:57;8.52;;;1.58;;
33501;SDS011;22396;51.070;4.974;2023-05-23T15:56:22;7.95;;;1.90;;
33501;SDS011;22396;51.070;4.974;2023-05-23T15:58:48;8.13;;;1.92;;
33501;SDS011;22396;51.070;4.974;2023-05-23T16:01:19;9.55;;;2.10;;